Terminal Aerodrome Forecast
Issued by NWS Charleston, WV

Current Version | Previous Version | Graphics & Text | Print | Product List | Glossary On
Versions: 1 2 3 4 5 6 7 8 9 10 11 12 13 14 15 16 17 18 19 20 21 22 23 24 25 26 27 28 29 30
000
FTUS41 KRLX 200500
TAFCRW
TAF
KCRW 200523Z 2006/2106 00000KT 5SM BR FEW001 FEW100
     FM200700 00000KT 2SM BR SCT001 SCT040
     FM201000 00000KT 4SM BR SCT004 BKN035
     FM201200 00000KT 6SM BR BKN025
     FM201400 VRB03KT P6SM BKN030
     FM201600 VRB03KT P6SM BKN035
     FM202300 00000KT P6SM SCT035=

USA.gov is the U.S. government's official web portal to all federal, state and local government web resources and services.